createdAt,value
2018-04-12T00:00:51.156Z,62.03
2018-04-12T00:03:18.515Z,57.97
2018-04-12T00:05:45.950Z,59.80
2018-04-12T00:08:15.671Z,59.27
2018-04-12T00:10:44.547Z,58.60
2018-04-12T00:13:12.043Z,61.43
2018-04-12T00:15:39.429Z,61.40
2018-04-12T00:18:06.803Z,61.00
2018-04-12T00:20:34.220Z,55.40
2018-04-12T00:23:01.570Z,60.13
2018-04-12T00:25:28.924Z,55.17
2018-04-12T00:27:56.310Z,56.27
2018-04-12T00:30:23.686Z,66.63
2018-04-12T00:32:51.035Z,55.53
2018-04-12T00:35:18.431Z,57.17
2018-04-12T00:37:45.786Z,54.10
2018-04-12T00:40:13.132Z,61.97
2018-04-12T00:42:40.550Z,58.37
2018-04-12T00:45:07.915Z,60.03
2018-04-12T00:47:35.418Z,55.20
2018-04-12T00:50:02.808Z,58.63
2018-04-12T00:52:30.153Z,54.47
2018-04-12T00:54:57.539Z,59.07
2018-04-12T00:57:24.951Z,61.30
2018-04-12T00:59:52.318Z,61.17
2018-04-12T01:02:19.679Z,55.43
2018-04-12T01:04:47.095Z,59.47
2018-04-12T01:07:14.463Z,58.60
2018-04-12T01:09:41.806Z,63.73
2018-04-12T01:12:09.260Z,66.73
2018-04-12T01:14:36.609Z,58.00
2018-04-12T01:17:03.968Z,58.10
2018-04-12T01:19:31.358Z,57.37
2018-04-12T01:21:58.735Z,65.93
2018-04-12T01:24:26.087Z,66.70
2018-04-12T01:26:53.467Z,57.40
2018-04-12T01:29:20.947Z,61.60
2018-04-12T01:31:48.343Z,62.53
2018-04-12T01:34:15.697Z,61.23
2018-04-12T01:36:43.073Z,60.13
2018-04-12T01:39:10.443Z,60.50
2018-04-12T01:41:37.838Z,61.77
2018-04-12T01:44:05.239Z,65.80
2018-04-12T01:46:32.718Z,61.47
2018-04-12T01:49:00.077Z,59.47
2018-04-12T01:51:27.940Z,64.30
2018-04-12T01:53:55.408Z,59.70
2018-04-12T01:56:22.796Z,61.40
2018-04-12T01:58:50.195Z,64.40
2018-04-12T02:01:17.600Z,59.80
2018-04-12T02:03:44.975Z,59.37
2018-04-12T02:06:12.358Z,59.67
2018-04-12T02:08:39.783Z,63.07
2018-04-12T02:11:07.200Z,61.57
2018-04-12T02:13:34.603Z,62.37
2018-04-12T02:16:01.988Z,63.73
2018-04-12T02:18:29.419Z,59.73
2018-04-12T02:20:56.807Z,60.43
2018-04-12T02:23:24.161Z,70.60
2018-04-12T02:25:51.574Z,63.70
2018-04-12T02:28:18.964Z,58.97
2018-04-12T02:30:46.328Z,61.03
2018-04-12T02:33:13.713Z,65.40
2018-04-12T02:35:41.087Z,65.20
2018-04-12T02:38:08.439Z,69.20
2018-04-12T02:40:35.864Z,63.83
2018-04-12T02:43:03.254Z,64.27
2018-04-12T02:45:30.648Z,69.40
2018-04-12T02:47:58.048Z,65.97
2018-04-12T02:50:25.459Z,62.27
2018-04-12T02:52:52.852Z,65.13
2018-04-12T02:55:20.211Z,66.73
2018-04-12T02:57:47.636Z,64.33
2018-04-12T03:00:14.995Z,67.00
2018-04-12T03:02:42.386Z,73.87
2018-04-12T03:05:09.734Z,65.30
2018-04-12T03:07:37.125Z,61.67
2018-04-12T03:10:04.511Z,70.73
2018-04-12T03:12:32.058Z,72.03
2018-04-12T03:14:59.440Z,66.13
2018-04-12T03:17:26.856Z,67.57
2018-04-12T03:19:54.236Z,70.27
2018-04-12T03:22:21.595Z,68.17
2018-04-12T03:24:49.008Z,69.23
2018-04-12T03:27:16.461Z,66.13
2018-04-12T03:29:43.863Z,71.17
2018-04-12T03:32:11.262Z,71.97
2018-04-12T03:34:38.631Z,65.57
2018-04-12T03:37:06.011Z,69.83
2018-04-12T03:39:33.436Z,69.00
2018-04-12T03:42:00.839Z,75.10
2018-04-12T03:44:28.224Z,70.40
2018-04-12T03:46:55.619Z,76.70
2018-04-12T03:49:22.989Z,73.60
2018-04-12T03:51:50.453Z,74.27
2018-04-12T03:54:17.824Z,70.70
2018-04-12T03:56:45.216Z,70.57
2018-04-12T03:59:12.658Z,73.20
2018-04-12T04:01:40.064Z,71.60
2018-04-12T04:04:07.492Z,78.13
2018-04-12T04:06:34.928Z,72.33
2018-04-12T04:09:02.320Z,75.43
2018-04-12T04:11:29.678Z,77.03
2018-04-12T04:13:57.097Z,70.90
2018-04-12T04:16:30.512Z,68.83
2018-04-12T04:19:03.863Z,72.87
2018-04-12T04:21:31.242Z,71.37
2018-04-12T04:23:58.635Z,83.27
2018-04-12T04:26:26.163Z,77.27
2018-04-12T04:28:53.548Z,81.00
2018-04-12T04:31:20.942Z,80.63
2018-04-12T04:33:48.528Z,75.33
2018-04-12T04:36:15.884Z,72.40
2018-04-12T04:38:43.273Z,70.43
2018-04-12T04:41:10.708Z,83.10
2018-04-12T04:43:38.126Z,82.10
2018-04-12T04:46:05.626Z,75.40
2018-04-12T04:48:33.031Z,79.77
2018-04-12T04:51:00.675Z,74.43
2018-04-12T04:53:28.034Z,70.13
2018-04-12T04:55:55.476Z,73.97
2018-04-12T04:58:22.867Z,71.27
2018-04-12T05:00:50.288Z,73.63
2018-04-12T05:03:17.662Z,72.87
2018-04-12T05:05:45.018Z,74.50
2018-04-12T05:08:12.440Z,77.27
2018-04-12T05:10:39.793Z,69.77
2018-04-12T05:13:07.681Z,69.27
2018-04-12T05:15:35.174Z,69.30
2018-04-12T05:18:02.563Z,68.83
2018-04-12T05:20:29.945Z,67.17
2018-04-12T05:22:57.375Z,62.40
2018-04-12T05:25:25.429Z,75.37
2018-04-12T05:27:53.150Z,63.13
2018-04-12T05:30:20.566Z,62.63
2018-04-12T05:32:48.678Z,62.47
2018-04-12T05:35:16.069Z,64.23
2018-04-12T05:37:43.445Z,71.77
2018-04-12T05:40:10.879Z,63.23
2018-04-12T05:42:38.266Z,66.90
2018-04-12T05:45:05.626Z,60.77
2018-04-12T05:47:33.053Z,62.40
2018-04-12T05:50:00.453Z,62.23
2018-04-12T05:52:27.912Z,62.20
2018-04-12T05:54:55.940Z,65.07
2018-04-12T05:57:23.368Z,57.10
2018-04-12T05:59:50.757Z,57.80
2018-04-12T06:02:18.191Z,60.70
2018-04-12T06:04:45.588Z,62.13
2018-04-12T06:07:13.004Z,62.50
2018-04-12T06:09:40.436Z,61.23
2018-04-12T06:12:07.824Z,52.60
2018-04-12T06:14:35.208Z,58.67
2018-04-12T06:17:02.603Z,57.97
2018-04-12T06:19:30.018Z,54.70
2018-04-12T06:21:57.372Z,51.63
2018-04-12T06:24:24.809Z,53.40
2018-04-12T06:26:52.213Z,55.03
2018-04-12T06:29:19.608Z,52.10
2018-04-12T06:31:47.021Z,52.80
2018-04-12T06:34:14.369Z,52.07
2018-04-12T06:36:41.758Z,51.93
2018-04-12T06:39:09.156Z,51.50
2018-04-12T06:41:36.571Z,51.40
2018-04-12T06:44:03.954Z,50.60
2018-04-12T06:46:31.304Z,51.30
2018-04-12T06:48:58.697Z,47.90
2018-04-12T06:51:26.082Z,53.37
2018-04-12T06:53:53.463Z,47.40
2018-04-12T06:56:20.854Z,48.93
2018-04-12T06:58:48.293Z,48.83
2018-04-12T07:01:15.680Z,44.33
2018-04-12T07:03:43.066Z,45.80
2018-04-12T07:06:10.443Z,40.03
2018-04-12T07:08:37.851Z,47.83
2018-04-12T07:11:05.229Z,43.03
2018-04-12T07:13:32.613Z,49.50
2018-04-12T07:16:00.079Z,42.60
2018-04-12T07:18:27.459Z,42.80
2018-04-12T07:20:54.864Z,45.33
2018-04-12T07:23:22.256Z,41.80
2018-04-12T07:25:49.652Z,44.00
2018-04-12T07:28:17.092Z,41.43
2018-04-12T07:30:44.479Z,40.83
2018-04-12T07:33:11.836Z,41.43
2018-04-12T07:35:39.265Z,40.83
2018-04-12T07:38:06.660Z,45.03
2018-04-12T07:40:34.010Z,37.97
2018-04-12T07:43:01.488Z,38.27
2018-04-12T07:45:28.846Z,38.20
2018-04-12T07:47:56.211Z,37.87
2018-04-12T07:50:23.639Z,39.97
2018-04-12T07:52:51.019Z,42.33
2018-04-12T07:55:18.460Z,39.50
2018-04-12T07:57:45.858Z,37.93
2018-04-12T08:00:13.279Z,41.40
2018-04-12T08:02:40.680Z,42.23
2018-04-12T08:05:11.441Z,36.13
2018-04-12T08:07:38.793Z,37.67
2018-04-12T08:10:06.196Z,36.97
2018-04-12T08:12:33.608Z,37.47
2018-04-12T08:15:01.076Z,39.10
2018-04-12T08:17:32.202Z,36.07
2018-04-12T08:19:59.599Z,40.30
2018-04-12T08:22:26.975Z,39.20
2018-04-12T08:24:54.338Z,34.73
2018-04-12T08:27:21.861Z,38.90
2018-04-12T08:29:49.220Z,33.40
2018-04-12T08:32:16.583Z,36.60
2018-04-12T08:34:43.983Z,36.87
2018-04-12T08:37:11.335Z,33.10
2018-04-12T08:39:38.720Z,37.23
2018-04-12T08:42:06.172Z,34.40
2018-04-12T08:44:33.555Z,34.40
2018-04-12T08:47:01.101Z,34.97
2018-04-12T08:49:28.464Z,33.43
2018-04-12T08:51:55.913Z,38.03
2018-04-12T08:54:23.479Z,34.03
2018-04-12T08:56:50.984Z,34.47
2018-04-12T08:59:18.489Z,32.80
2018-04-12T09:01:45.887Z,33.07
2018-04-12T09:04:13.276Z,30.93
2018-04-12T09:06:40.646Z,29.83
2018-04-12T09:09:08.034Z,28.47
2018-04-12T09:11:35.417Z,29.90
2018-04-12T09:14:02.781Z,29.73
2018-04-12T09:16:30.168Z,32.50
2018-04-12T09:18:57.585Z,30.60
2018-04-12T09:21:24.971Z,29.97
2018-04-12T09:23:52.318Z,27.37
2018-04-12T09:26:19.717Z,30.53
2018-04-12T09:28:47.127Z,24.97
2018-04-12T09:31:14.516Z,27.87
2018-04-12T09:33:41.873Z,29.10
2018-04-12T09:36:09.364Z,28.33
2018-04-12T09:38:36.775Z,25.93
2018-04-12T09:41:04.244Z,27.73
2018-04-12T09:43:31.636Z,24.77
2018-04-12T09:45:59.018Z,27.70
2018-04-12T09:48:26.559Z,30.47
2018-04-12T09:50:54.102Z,24.00
2018-04-12T09:53:21.491Z,26.07
2018-04-12T09:55:49.724Z,27.03
2018-04-12T09:58:17.300Z,25.87
2018-04-12T10:00:50.799Z,26.83
2018-04-12T10:03:18.325Z,21.23
2018-04-12T10:05:51.574Z,25.40
2018-04-12T10:08:24.796Z,20.47
2018-04-12T10:10:52.304Z,25.20
2018-04-12T10:13:19.675Z,22.43
2018-04-12T10:15:47.163Z,21.60
2018-04-12T10:18:14.633Z,21.03
2018-04-12T10:20:42.092Z,23.83
2018-04-12T10:23:09.583Z,20.70
2018-04-12T10:25:37.022Z,24.30
2018-04-12T10:28:04.460Z,23.10
2018-04-12T10:30:31.896Z,17.03
2018-04-12T10:32:59.685Z,19.03
2018-04-12T10:35:27.285Z,20.40
2018-04-12T10:37:54.666Z,19.00
2018-04-12T10:40:22.095Z,21.37
2018-04-12T10:42:49.508Z,19.07
2018-04-12T10:45:17.109Z,17.47
2018-04-12T10:47:44.502Z,20.80
2018-04-12T10:50:11.858Z,23.60
2018-04-12T10:52:39.243Z,16.47
2018-04-12T10:55:06.656Z,15.87
2018-04-12T10:57:34.039Z,14.97
2018-04-12T11:00:01.408Z,14.20
2018-04-12T11:02:28.834Z,23.23
2018-04-12T11:04:56.290Z,18.93
2018-04-12T11:07:23.648Z,17.90
2018-04-12T11:09:51.551Z,18.83
2018-04-12T11:12:18.987Z,20.23
2018-04-12T11:14:46.659Z,13.53
2018-04-12T11:17:14.056Z,17.03
2018-04-12T11:19:41.451Z,18.90
2018-04-12T11:22:08.867Z,17.67
2018-04-12T11:24:36.222Z,14.30
2018-04-12T11:27:03.674Z,13.67
2018-04-12T11:29:31.051Z,12.83
2018-04-12T11:31:58.449Z,16.80
2018-04-12T11:34:25.927Z,21.73
2018-04-12T11:36:53.310Z,14.43
2018-04-12T11:39:20.664Z,13.43
2018-04-12T11:41:48.077Z,16.47
2018-04-12T11:44:15.447Z,22.57
2018-04-12T11:46:42.888Z,14.13
2018-04-12T11:49:10.345Z,11.43
2018-04-12T11:51:37.703Z,15.67
2018-04-12T11:54:05.065Z,15.63
2018-04-12T11:56:32.472Z,12.40
2018-04-12T11:58:59.878Z,14.33
2018-04-12T12:01:27.252Z,20.60
2018-04-12T12:03:54.660Z,18.23
2018-04-12T12:06:22.041Z,12.57
2018-04-12T12:08:49.410Z,11.57
2018-04-12T12:11:16.837Z,12.87
2018-04-12T12:13:44.223Z,12.93
2018-04-12T12:16:11.615Z,19.90
2018-04-12T12:18:39.040Z,10.03
2018-04-12T12:21:06.477Z,14.40
2018-04-12T12:23:33.951Z,18.33
2018-04-12T12:26:01.326Z,13.43
2018-04-12T12:28:28.708Z,12.77
2018-04-12T12:30:56.141Z,10.20
2018-04-12T12:33:24.454Z,12.93
2018-04-12T12:35:51.859Z,11.40
2018-04-12T12:38:19.259Z,13.00
2018-04-12T12:40:46.643Z,15.07
2018-04-12T12:43:14.015Z,14.10
2018-04-12T12:45:41.411Z,14.87
2018-04-12T12:48:08.932Z,17.80
2018-04-12T12:50:36.312Z,10.33
2018-04-12T12:53:03.746Z,10.17
2018-04-12T12:55:31.569Z,10.97
2018-04-12T12:57:58.924Z,8.77
2018-04-12T13:00:26.319Z,11.50
2018-04-12T13:02:53.717Z,12.07
2018-04-12T13:05:21.109Z,10.27
2018-04-12T13:07:48.502Z,9.20
2018-04-12T13:10:15.887Z,12.03
2018-04-12T13:12:43.244Z,12.33
2018-04-12T13:15:10.757Z,12.50
2018-04-12T13:17:38.186Z,11.97
2018-04-12T13:20:05.745Z,9.33
2018-04-12T13:22:33.306Z,16.20
2018-04-12T13:25:00.796Z,14.63
2018-04-12T13:27:28.175Z,16.07
2018-04-12T13:29:55.561Z,13.23
2018-04-12T13:32:22.950Z,11.33
2018-04-12T13:34:50.485Z,14.73
2018-04-12T13:37:18.143Z,9.87
2018-04-12T13:39:45.513Z,14.53
2018-04-12T13:42:12.892Z,7.30
2018-04-12T13:44:40.312Z,11.33
2018-04-12T13:47:07.663Z,9.83
2018-04-12T13:49:35.043Z,8.80
2018-04-12T13:52:02.456Z,13.00
2018-04-12T13:54:29.799Z,7.80
2018-04-12T13:56:57.168Z,9.33
2018-04-12T13:59:24.539Z,10.90
2018-04-12T14:01:51.904Z,14.30
2018-04-12T14:04:19.304Z,10.00
2018-04-12T14:06:46.694Z,9.93
2018-04-12T14:09:14.056Z,9.70
2018-04-12T14:11:41.461Z,8.20
2018-04-12T14:14:08.870Z,11.03
2018-04-12T14:16:36.282Z,11.03
2018-04-12T14:19:03.771Z,10.90
2018-04-12T14:21:31.138Z,10.07
2018-04-12T14:23:58.559Z,9.83
2018-04-12T14:26:25.947Z,8.90
2018-04-12T14:28:53.304Z,11.10
2018-04-12T14:31:20.706Z,8.53
2018-04-12T14:33:48.112Z,9.20
2018-04-12T14:36:15.537Z,8.83
2018-04-12T14:38:45.965Z,8.93
2018-04-12T14:41:13.343Z,10.50
2018-04-12T14:43:40.703Z,11.40
2018-04-12T14:46:08.054Z,12.43
2018-04-12T14:48:35.455Z,8.80
2018-04-12T14:51:02.880Z,9.30
2018-04-12T14:53:30.304Z,10.70
2018-04-12T14:55:57.652Z,10.13
2018-04-12T14:58:25.051Z,11.07
2018-04-12T15:00:52.449Z,13.93
2018-04-12T15:03:19.843Z,8.97
2018-04-12T15:05:47.211Z,12.30
2018-04-12T15:08:14.579Z,12.53
2018-04-12T15:10:41.997Z,12.20
2018-04-12T15:13:09.395Z,12.97
2018-04-12T15:15:36.829Z,10.37
2018-04-12T15:18:04.241Z,12.77
2018-04-12T15:20:31.760Z,12.17
2018-04-12T15:22:59.166Z,13.77
2018-04-12T15:25:26.567Z,16.33
2018-04-12T15:27:53.966Z,13.23
2018-04-12T15:30:21.363Z,11.40
2018-04-12T15:32:49.618Z,22.10
2018-04-12T15:35:17.552Z,13.03
2018-04-12T15:37:45.158Z,20.87
2018-04-12T15:40:13.773Z,16.13
2018-04-12T15:42:41.216Z,13.17
2018-04-12T15:45:08.567Z,15.50
2018-04-12T15:47:36.009Z,12.97
2018-04-12T15:50:03.407Z,15.93
2018-04-12T15:52:30.846Z,20.43
2018-04-12T15:54:58.271Z,17.63
2018-04-12T15:57:25.671Z,15.43
2018-04-12T15:59:53.088Z,23.20
2018-04-12T16:02:20.706Z,16.47
2018-04-12T16:04:48.111Z,21.03
2018-04-12T16:07:15.521Z,22.50
2018-04-12T16:09:42.878Z,20.70
2018-04-12T16:12:10.276Z,18.03
2018-04-12T16:14:37.670Z,16.67
2018-04-12T16:17:05.059Z,18.50
2018-04-12T16:19:32.476Z,16.60
2018-04-12T16:21:59.856Z,16.77
2018-04-12T16:24:27.275Z,23.63
2018-04-12T16:26:54.726Z,23.40
2018-04-12T16:29:22.086Z,22.40
2018-04-12T16:31:49.748Z,17.50
2018-04-12T16:34:17.202Z,20.37
2018-04-12T16:36:44.639Z,19.40
2018-04-12T16:39:12.044Z,20.90
2018-04-12T16:41:39.477Z,21.53
2018-04-12T16:44:06.967Z,27.67
2018-04-12T16:46:34.343Z,24.03
2018-04-12T16:49:01.734Z,21.33
2018-04-12T16:51:29.124Z,24.57
2018-04-12T16:53:56.543Z,25.23
2018-04-12T16:56:23.932Z,25.07
2018-04-12T16:58:51.327Z,24.20
2018-04-12T17:01:18.815Z,31.43
2018-04-12T17:03:46.229Z,26.80
2018-04-12T17:06:13.742Z,23.03
2018-04-12T17:08:41.141Z,26.70
2018-04-12T17:11:08.500Z,38.97
2018-04-12T17:13:35.877Z,25.93
2018-04-12T17:16:03.283Z,23.47
2018-04-12T17:18:30.688Z,26.57
2018-04-12T17:20:58.076Z,25.70
2018-04-12T17:23:25.507Z,32.77
2018-04-12T17:25:52.896Z,27.00
2018-04-12T17:28:20.298Z,26.73
2018-04-12T17:30:47.713Z,25.80
2018-04-12T17:33:15.126Z,28.10
2018-04-12T17:35:42.543Z,29.30
2018-04-12T17:38:09.970Z,30.83
2018-04-12T17:40:37.362Z,29.97
2018-04-12T17:43:04.792Z,28.23
2018-04-12T17:45:32.172Z,31.77
2018-04-12T17:47:59.796Z,38.87
2018-04-12T17:50:27.665Z,30.63
2018-04-12T17:52:55.042Z,29.47
2018-04-12T17:55:22.591Z,32.83
2018-04-12T17:57:50.059Z,38.50
2018-04-12T18:00:17.506Z,37.43
2018-04-12T18:02:44.888Z,33.53
2018-04-12T18:05:12.344Z,38.17
2018-04-12T18:07:39.738Z,34.37
2018-04-12T18:10:07.095Z,33.87
2018-04-12T18:12:34.647Z,36.57
2018-04-12T18:15:02.009Z,32.70
2018-04-12T18:17:29.374Z,33.37
2018-04-12T18:19:56.790Z,37.70
2018-04-12T18:22:24.214Z,38.77
2018-04-12T18:24:51.608Z,40.87
2018-04-12T18:27:19.011Z,41.60
2018-04-12T18:29:46.383Z,38.40
2018-04-12T18:32:13.917Z,37.63
2018-04-12T18:34:41.266Z,45.13
2018-04-12T18:37:08.618Z,39.43
2018-04-12T18:39:36.362Z,42.33
2018-04-12T18:42:03.735Z,42.00
2018-04-12T18:44:31.129Z,42.93
2018-04-12T18:46:58.531Z,41.23
2018-04-12T18:49:25.884Z,39.13
2018-04-12T18:51:53.563Z,39.30
2018-04-12T18:54:21.068Z,42.87
2018-04-12T18:56:48.898Z,43.23
2018-04-12T18:59:16.529Z,41.10
2018-04-12T19:01:44.011Z,42.83
2018-04-12T19:04:11.500Z,42.10
2018-04-12T19:06:38.874Z,43.40
2018-04-12T19:09:06.312Z,45.43
2018-04-12T19:11:33.843Z,44.17
2018-04-12T19:14:01.206Z,41.43
2018-04-12T19:16:28.681Z,39.43
2018-04-12T19:18:56.116Z,49.50
2018-04-12T19:21:23.674Z,48.73
2018-04-12T19:23:51.152Z,41.20
2018-04-12T19:26:18.771Z,44.20
2018-04-12T19:28:46.165Z,42.73
2018-04-12T19:31:13.811Z,51.83
2018-04-12T19:33:41.254Z,45.67
2018-04-12T19:36:08.729Z,42.40
2018-04-12T19:38:36.141Z,44.83
2018-04-12T19:41:03.665Z,46.30
2018-04-12T19:43:31.043Z,49.00
2018-04-12T19:45:58.411Z,47.50
2018-04-12T19:48:25.815Z,43.10
2018-04-12T19:50:53.194Z,45.40
2018-04-12T19:53:20.604Z,45.73
2018-04-12T19:55:47.994Z,52.80
2018-04-12T19:58:15.423Z,52.97
2018-04-12T20:00:43.041Z,46.33
2018-04-12T20:03:10.466Z,52.43
2018-04-12T20:05:37.908Z,52.57
2018-04-12T20:08:05.266Z,52.50
2018-04-12T20:10:32.839Z,48.90
2018-04-12T20:13:00.259Z,55.70
2018-04-12T20:15:27.735Z,54.07
2018-04-12T20:17:55.159Z,58.80
2018-04-12T20:20:22.702Z,55.50
2018-04-12T20:22:50.231Z,51.73
2018-04-12T20:25:17.633Z,56.83
2018-04-12T20:27:45.157Z,56.50
2018-04-12T20:30:12.587Z,62.27
2018-04-12T20:32:39.954Z,54.77
2018-04-12T20:35:07.342Z,57.10
2018-04-12T20:37:34.842Z,53.60
2018-04-12T20:40:02.649Z,61.10
2018-04-12T20:42:30.165Z,56.33
2018-04-12T20:44:57.606Z,56.70
2018-04-12T20:47:24.989Z,62.97
2018-04-12T20:49:52.360Z,60.07
2018-04-12T20:52:19.805Z,57.60
2018-04-12T20:54:47.173Z,58.60
2018-04-12T20:57:14.636Z,60.80
2018-04-12T20:59:42.067Z,65.30
2018-04-12T21:02:09.465Z,72.23
2018-04-12T21:04:36.840Z,70.00
2018-04-12T21:07:04.259Z,61.23
2018-04-12T21:09:31.669Z,59.97
2018-04-12T21:11:59.074Z,60.50
2018-04-12T21:14:26.485Z,61.50
2018-04-12T21:16:53.871Z,62.80
2018-04-12T21:19:21.283Z,62.10
2018-04-12T21:21:48.643Z,63.13
2018-04-12T21:24:16.013Z,63.70
2018-04-12T21:26:43.455Z,68.87
2018-04-12T21:29:10.868Z,67.43
